createdAt,value
2023-01-21T00:01:13.010Z,8.69
2023-01-21T00:03:39.430Z,8.93
2023-01-21T00:06:05.900Z,9.26
2023-01-21T00:08:32.272Z,9.44
2023-01-21T00:10:58.678Z,10.15
2023-01-21T00:13:25.029Z,9.70
2023-01-21T00:15:51.472Z,9.32
2023-01-21T00:18:17.889Z,9.07
2023-01-21T00:20:44.255Z,8.95
2023-01-21T00:23:10.696Z,9.21
2023-01-21T00:25:37.059Z,8.88
2023-01-21T00:28:03.450Z,9.07
2023-01-21T00:30:29.804Z,9.14
2023-01-21T00:32:56.188Z,8.47
2023-01-21T00:35:22.578Z,8.25
2023-01-21T00:37:48.951Z,7.29
2023-01-21T00:40:15.726Z,7.58
2023-01-21T00:42:42.358Z,7.87
2023-01-21T00:45:08.753Z,7.09
2023-01-21T00:47:35.143Z,7.02
2023-01-21T00:50:01.543Z,7.01
2023-01-21T00:52:27.941Z,6.62
2023-01-21T00:54:54.311Z,6.91
2023-01-21T00:57:20.691Z,6.47
2023-01-21T00:59:47.386Z,6.53
2023-01-21T01:02:13.778Z,6.31
2023-01-21T01:04:40.185Z,6.06
2023-01-21T01:07:06.554Z,6.11
2023-01-21T01:09:32.923Z,6.00
2023-01-21T01:11:59.303Z,5.99
2023-01-21T01:14:25.689Z,5.68
2023-01-21T01:16:52.059Z,5.64
2023-01-21T01:19:18.474Z,5.94
2023-01-21T01:21:44.853Z,5.86
2023-01-21T01:24:11.249Z,5.61
2023-01-21T01:26:37.631Z,5.65
2023-01-21T01:29:04.021Z,5.88
2023-01-21T01:31:30.441Z,5.83
2023-01-21T01:33:56.817Z,5.48
2023-01-21T01:36:23.200Z,5.36
2023-01-21T01:38:49.594Z,5.38
2023-01-21T01:41:16.009Z,5.37
2023-01-21T01:43:42.382Z,5.05
2023-01-21T01:46:08.819Z,5.04
2023-01-21T01:48:35.211Z,4.81
2023-01-21T01:51:01.625Z,5.19
2023-01-21T01:53:28.035Z,5.45
2023-01-21T01:55:54.404Z,4.75
2023-01-21T01:58:20.750Z,4.46
2023-01-21T02:00:47.133Z,4.20
2023-01-21T02:03:13.501Z,4.15
2023-01-21T02:05:39.857Z,4.51
2023-01-21T02:08:06.226Z,4.31
2023-01-21T02:10:32.576Z,4.13
2023-01-21T02:12:58.947Z,3.62
2023-01-21T02:15:25.318Z,3.79
2023-01-21T02:17:51.699Z,4.12
2023-01-21T02:20:18.505Z,3.91
2023-01-21T02:22:44.971Z,3.83
2023-01-21T02:25:11.343Z,3.66
2023-01-21T02:27:37.733Z,3.71
2023-01-21T02:30:04.100Z,3.78
2023-01-21T02:32:30.507Z,3.77
2023-01-21T02:34:56.936Z,3.75
2023-01-21T02:37:23.295Z,3.58
2023-01-21T02:39:49.656Z,3.66
2023-01-21T02:42:16.049Z,4.04
2023-01-21T02:44:42.435Z,3.82
2023-01-21T02:47:08.789Z,3.75
2023-01-21T02:49:35.205Z,3.70
2023-01-21T02:52:01.682Z,3.74
2023-01-21T02:54:28.075Z,4.04
2023-01-21T02:56:54.447Z,4.36
2023-01-21T02:59:20.838Z,4.88
2023-01-21T03:01:47.360Z,3.95
2023-01-21T03:04:13.764Z,4.55
2023-01-21T03:06:40.160Z,4.43
2023-01-21T03:09:06.527Z,4.50
2023-01-21T03:11:33.040Z,4.44
2023-01-21T03:13:59.427Z,5.11
2023-01-21T03:16:25.930Z,5.29
2023-01-21T03:18:52.456Z,5.05
2023-01-21T03:21:18.823Z,5.34
2023-01-21T03:23:45.292Z,5.50
2023-01-21T03:26:11.644Z,6.20
2023-01-21T03:28:38.028Z,9.72
2023-01-21T03:31:04.698Z,12.73
2023-01-21T03:33:31.139Z,14.84
2023-01-21T03:35:57.555Z,15.83
2023-01-21T03:38:23.950Z,16.69
2023-01-21T03:40:50.338Z,16.88
2023-01-21T03:43:16.729Z,17.10
2023-01-21T03:45:43.208Z,16.91
2023-01-21T03:48:09.593Z,16.43
2023-01-21T03:50:35.996Z,16.21
2023-01-21T03:53:02.461Z,15.64
2023-01-21T03:55:28.844Z,15.09
2023-01-21T03:57:55.232Z,14.97
2023-01-21T04:00:21.623Z,14.30
2023-01-21T04:02:48.009Z,13.87
2023-01-21T04:05:14.462Z,14.43
2023-01-21T04:07:40.835Z,13.97
2023-01-21T04:10:07.244Z,14.33
2023-01-21T04:12:33.573Z,14.70
2023-01-21T04:14:59.947Z,14.23
2023-01-21T04:17:26.338Z,15.11
2023-01-21T04:19:52.747Z,14.69
2023-01-21T04:22:19.129Z,14.80
2023-01-21T04:24:45.544Z,14.54
2023-01-21T04:27:12.003Z,15.28
2023-01-21T04:29:38.381Z,15.15
2023-01-21T04:32:04.755Z,15.31
2023-01-21T04:34:31.146Z,15.09
2023-01-21T04:36:57.520Z,14.67
2023-01-21T04:39:23.924Z,15.21
2023-01-21T04:41:50.365Z,15.50
2023-01-21T04:44:16.758Z,16.03
2023-01-21T04:46:43.153Z,16.22
2023-01-21T04:49:09.670Z,16.49
2023-01-21T04:51:36.089Z,16.15
2023-01-21T04:54:02.466Z,15.08
2023-01-21T04:56:28.859Z,15.26
2023-01-21T04:58:55.225Z,14.04
2023-01-21T05:01:21.642Z,14.93
2023-01-21T05:03:48.018Z,14.29
2023-01-21T05:06:14.416Z,14.51
2023-01-21T05:08:40.838Z,14.38
2023-01-21T05:11:07.227Z,13.90
2023-01-21T05:13:33.632Z,13.38
2023-01-21T05:16:00.037Z,11.69
2023-01-21T05:18:26.481Z,12.19
2023-01-21T05:20:52.874Z,12.48
2023-01-21T05:23:19.310Z,12.87
2023-01-21T05:25:45.692Z,13.11
2023-01-21T05:28:12.095Z,13.66
2023-01-21T05:30:40.696Z,13.35
2023-01-21T05:33:07.815Z,14.58
2023-01-21T05:35:34.177Z,14.55
2023-01-21T05:38:00.616Z,15.12
2023-01-21T05:40:26.994Z,14.62
2023-01-21T05:42:53.395Z,14.94
2023-01-21T05:45:19.770Z,14.06
2023-01-21T05:47:46.187Z,11.79
2023-01-21T05:50:12.563Z,9.94
2023-01-21T05:52:38.955Z,9.02
2023-01-21T05:55:05.407Z,9.78
2023-01-21T05:57:31.765Z,10.25
2023-01-21T05:59:58.141Z,8.30
2023-01-21T06:02:24.677Z,7.15
2023-01-21T06:04:51.065Z,6.63
2023-01-21T06:07:17.448Z,5.95
2023-01-21T06:09:43.907Z,5.71
2023-01-21T06:12:10.297Z,5.77
2023-01-21T06:14:36.696Z,5.69
2023-01-21T06:17:03.159Z,5.77
2023-01-21T06:19:29.679Z,6.65
2023-01-21T06:21:56.088Z,7.72
2023-01-21T06:24:22.551Z,7.86
2023-01-21T06:26:48.909Z,9.61
2023-01-21T06:29:15.290Z,15.70
2023-01-21T06:31:41.973Z,10.61
2023-01-21T06:34:08.405Z,8.97
2023-01-21T06:36:34.796Z,9.05
2023-01-21T06:39:01.187Z,8.72
2023-01-21T06:41:27.589Z,9.13
2023-01-21T06:43:53.976Z,10.00
2023-01-21T06:46:20.446Z,10.93
2023-01-21T06:48:46.845Z,12.20
2023-01-21T06:51:13.288Z,12.58
2023-01-21T06:53:39.678Z,12.31
2023-01-21T06:56:06.063Z,12.92
2023-01-21T06:58:32.453Z,13.15
2023-01-21T07:00:58.852Z,13.82
2023-01-21T07:03:25.254Z,13.13
2023-01-21T07:05:51.626Z,13.39
2023-01-21T07:08:18.013Z,13.26
2023-01-21T07:10:46.791Z,12.98
2023-01-21T07:13:13.989Z,12.63
2023-01-21T07:15:41.518Z,12.37
2023-01-21T07:18:07.924Z,13.10
2023-01-21T07:20:34.415Z,12.38
2023-01-21T07:23:00.792Z,11.98
2023-01-21T07:25:27.201Z,10.84
2023-01-21T07:27:53.619Z,10.30
2023-01-21T07:30:19.997Z,10.03
2023-01-21T07:32:46.348Z,9.24
2023-01-21T07:35:12.768Z,9.39
2023-01-21T07:37:39.124Z,8.39
2023-01-21T07:40:05.539Z,8.04
2023-01-21T07:42:31.945Z,8.89
2023-01-21T07:44:58.377Z,8.44
2023-01-21T07:47:24.761Z,7.41
2023-01-21T07:49:51.140Z,7.32
2023-01-21T07:52:17.575Z,6.69
2023-01-21T07:54:43.960Z,7.54
2023-01-21T07:57:10.356Z,6.44
2023-01-21T07:59:36.725Z,6.34
2023-01-21T08:02:03.280Z,5.67
2023-01-21T08:04:29.760Z,6.01
2023-01-21T08:06:56.142Z,6.91
2023-01-21T08:09:22.533Z,6.64
2023-01-21T08:11:48.914Z,6.80
2023-01-21T08:14:15.293Z,5.33
2023-01-21T08:16:41.685Z,4.76
2023-01-21T08:19:08.095Z,4.55
2023-01-21T08:21:34.455Z,4.49
2023-01-21T08:24:00.919Z,4.30
2023-01-21T08:26:27.316Z,4.65
2023-01-21T08:28:53.684Z,4.65
2023-01-21T08:31:20.212Z,4.89
2023-01-21T08:33:46.642Z,4.70
2023-01-21T08:36:13.029Z,5.04
2023-01-21T08:38:39.524Z,5.28
2023-01-21T08:41:05.881Z,5.62
2023-01-21T08:43:32.283Z,6.09
2023-01-21T08:45:58.741Z,6.47
2023-01-21T08:48:25.183Z,6.94
2023-01-21T08:50:51.582Z,7.48
2023-01-21T08:53:17.988Z,7.62
2023-01-21T08:55:44.421Z,7.70
2023-01-21T08:58:10.862Z,8.17
2023-01-21T09:00:37.283Z,7.56
2023-01-21T09:03:03.657Z,7.97
2023-01-21T09:05:30.107Z,7.79
2023-01-21T09:07:58.164Z,8.20
2023-01-21T09:10:24.727Z,7.91
2023-01-21T09:12:51.134Z,7.80
2023-01-21T09:15:17.762Z,8.61
2023-01-21T09:17:44.356Z,8.15
2023-01-21T09:20:10.850Z,8.18
2023-01-21T09:22:37.220Z,8.53
2023-01-21T09:25:03.594Z,8.64
2023-01-21T09:27:30.197Z,9.34
2023-01-21T09:29:56.627Z,9.27
2023-01-21T09:32:23.020Z,9.58
2023-01-21T09:34:49.425Z,11.34
2023-01-21T09:37:15.819Z,9.56
2023-01-21T09:39:42.201Z,10.02
2023-01-21T09:42:08.635Z,9.92
2023-01-21T09:44:35.014Z,10.52
2023-01-21T09:47:01.412Z,11.65
2023-01-21T09:49:27.805Z,11.35
2023-01-21T09:51:54.412Z,11.64
2023-01-21T09:54:20.789Z,12.34
2023-01-21T09:56:47.307Z,11.69
2023-01-21T09:59:13.710Z,11.99
2023-01-21T10:01:40.161Z,11.92
2023-01-21T10:04:06.641Z,11.65
2023-01-21T10:06:33.087Z,11.44
2023-01-21T10:08:59.480Z,10.90
2023-01-21T10:11:25.874Z,11.11
2023-01-21T10:13:52.273Z,10.51
2023-01-21T10:16:18.860Z,10.13
2023-01-21T10:18:45.267Z,10.21
2023-01-21T10:21:11.881Z,10.58
2023-01-21T10:23:38.291Z,10.33
2023-01-21T10:26:04.682Z,10.38
2023-01-21T10:28:31.072Z,10.40
2023-01-21T10:30:57.665Z,10.47
2023-01-21T10:33:24.102Z,10.49
2023-01-21T10:35:50.523Z,11.11
2023-01-21T10:38:16.907Z,10.94
2023-01-21T10:40:43.293Z,11.39
2023-01-21T10:43:09.706Z,11.61
2023-01-21T10:45:36.112Z,11.33
2023-01-21T10:48:02.514Z,11.12
2023-01-21T10:50:28.945Z,11.66
2023-01-21T10:52:55.374Z,11.22
2023-01-21T10:55:21.784Z,11.56
2023-01-21T10:57:48.148Z,11.59
2023-01-21T11:00:14.630Z,12.43
2023-01-21T11:02:41.165Z,12.67
2023-01-21T11:05:07.698Z,12.24
2023-01-21T11:07:34.091Z,11.90
2023-01-21T11:10:00.556Z,12.07
2023-01-21T11:12:26.967Z,11.60
2023-01-21T11:14:53.419Z,10.85
2023-01-21T11:17:20.265Z,10.93
2023-01-21T11:19:46.632Z,11.26
2023-01-21T11:22:12.992Z,11.37
2023-01-21T11:24:39.366Z,10.57
2023-01-21T11:27:05.727Z,10.34
2023-01-21T11:29:32.112Z,10.97
2023-01-21T11:31:58.557Z,11.29
2023-01-21T11:34:25.023Z,10.70
2023-01-21T11:36:51.432Z,11.11
2023-01-21T11:39:17.798Z,10.88
2023-01-21T11:41:44.248Z,10.82
2023-01-21T11:44:10.602Z,11.20
2023-01-21T11:46:36.984Z,10.53
2023-01-21T11:49:03.408Z,10.59
2023-01-21T11:51:29.792Z,11.58
2023-01-21T11:53:56.207Z,11.86
2023-01-21T11:56:22.582Z,11.75
2023-01-21T11:58:49.017Z,12.19
2023-01-21T12:01:15.407Z,12.75
2023-01-21T12:03:41.818Z,12.23
2023-01-21T12:06:08.203Z,12.77
2023-01-21T12:08:34.603Z,12.61
2023-01-21T12:11:01.007Z,12.84
2023-01-21T12:13:27.387Z,13.30
2023-01-21T12:15:53.877Z,13.31
2023-01-21T12:18:20.295Z,12.98
2023-01-21T12:20:46.672Z,12.46
2023-01-21T12:23:13.056Z,13.04
2023-01-21T12:25:39.420Z,13.00
2023-01-21T12:28:05.798Z,12.55
2023-01-21T12:30:32.226Z,12.45
2023-01-21T12:32:58.641Z,12.62
2023-01-21T12:35:25.027Z,12.28
2023-01-21T12:37:51.444Z,12.84
2023-01-21T12:40:18.079Z,12.72
2023-01-21T12:42:44.644Z,13.72
2023-01-21T12:45:11.012Z,12.87
2023-01-21T12:47:37.407Z,13.36
2023-01-21T12:50:03.783Z,13.57
2023-01-21T12:52:30.371Z,13.01
2023-01-21T12:54:56.744Z,12.41
2023-01-21T12:57:23.148Z,12.28
2023-01-21T12:59:49.568Z,11.67
2023-01-21T13:02:15.975Z,11.16
2023-01-21T13:04:42.404Z,10.15
2023-01-21T13:07:08.767Z,9.79
2023-01-21T13:09:35.185Z,8.84
2023-01-21T13:12:01.554Z,8.24
2023-01-21T13:14:27.973Z,7.87
2023-01-21T13:16:54.363Z,8.52
2023-01-21T13:19:20.720Z,8.62
2023-01-21T13:21:47.090Z,9.40
2023-01-21T13:24:13.470Z,9.99
2023-01-21T13:26:39.857Z,10.02
2023-01-21T13:29:06.249Z,9.37
2023-01-21T13:31:32.736Z,9.42
2023-01-21T13:33:59.156Z,8.90
2023-01-21T13:36:25.545Z,9.17
2023-01-21T13:38:51.937Z,9.28
2023-01-21T13:41:18.333Z,9.81
2023-01-21T13:43:44.726Z,9.38
2023-01-21T13:46:11.179Z,9.03
2023-01-21T13:48:37.568Z,8.88
2023-01-21T13:51:04.035Z,8.44
2023-01-21T13:53:30.535Z,8.17
2023-01-21T13:55:56.908Z,8.23
2023-01-21T13:58:23.278Z,8.35
2023-01-21T14:00:49.711Z,8.34
2023-01-21T14:03:16.115Z,8.46
2023-01-21T14:05:42.569Z,8.59
2023-01-21T14:08:08.927Z,8.32
2023-01-21T14:10:35.332Z,8.51
2023-01-21T14:13:01.770Z,8.42
2023-01-21T14:15:28.127Z,8.88
2023-01-21T14:17:54.503Z,8.10
2023-01-21T14:20:20.955Z,8.45
2023-01-21T14:22:47.325Z,8.49
2023-01-21T14:25:13.871Z,8.70
2023-01-21T14:27:40.255Z,8.53
2023-01-21T14:32:57.009Z,8.39
2023-01-21T14:35:23.620Z,8.40
2023-01-21T14:37:49.990Z,8.54
2023-01-21T14:40:16.599Z,8.06
2023-01-21T14:42:43.112Z,8.61
2023-01-21T14:45:09.499Z,9.01
2023-01-21T14:47:35.868Z,8.77
2023-01-21T14:50:02.263Z,8.71
2023-01-21T14:52:28.645Z,8.09
2023-01-21T14:54:55.013Z,8.10
2023-01-21T14:57:21.410Z,8.11
2023-01-21T14:59:47.791Z,7.85
2023-01-21T15:02:14.177Z,7.91
2023-01-21T15:04:40.579Z,8.56
2023-01-21T15:07:06.994Z,9.21
2023-01-21T15:09:33.367Z,9.21
2023-01-21T15:11:59.719Z,9.18
2023-01-21T15:14:26.148Z,9.14
2023-01-21T15:16:52.714Z,9.68
2023-01-21T15:19:19.137Z,9.55
2023-01-21T15:21:45.501Z,9.31
2023-01-21T15:24:11.895Z,9.04
2023-01-21T15:26:38.261Z,9.44
2023-01-21T15:29:04.637Z,10.02
2023-01-21T15:31:31.135Z,9.57
2023-01-21T15:33:57.634Z,9.84
2023-01-21T15:36:23.984Z,9.53
2023-01-21T15:38:50.358Z,9.68
2023-01-21T15:41:16.735Z,9.54
2023-01-21T15:43:43.130Z,9.55
2023-01-21T15:46:09.718Z,9.44
2023-01-21T15:48:41.807Z,9.85
2023-01-21T15:51:08.730Z,9.20
2023-01-21T15:53:35.189Z,9.05
2023-01-21T15:56:01.591Z,9.25
2023-01-21T15:58:27.967Z,9.64
2023-01-21T16:00:54.424Z,9.40
2023-01-21T16:03:20.872Z,9.57
2023-01-21T16:05:47.239Z,9.22
2023-01-21T16:08:13.627Z,9.49
2023-01-21T16:10:40.184Z,9.88
2023-01-21T16:13:06.558Z,10.15
2023-01-21T16:15:32.976Z,10.74
2023-01-21T16:17:59.697Z,10.95
2023-01-21T16:20:26.051Z,11.57
2023-01-21T16:22:52.397Z,11.60
2023-01-21T16:25:19.159Z,11.40
2023-01-21T16:27:45.756Z,12.16
2023-01-21T16:30:12.128Z,12.68
2023-01-21T16:32:38.503Z,12.80
2023-01-21T16:35:04.859Z,13.29
2023-01-21T16:37:31.223Z,13.60
2023-01-21T16:39:57.602Z,14.25
2023-01-21T16:42:23.978Z,14.26
2023-01-21T16:44:50.401Z,15.09
2023-01-21T16:47:18.105Z,15.62
2023-01-21T16:49:44.511Z,16.27
2023-01-21T16:52:10.932Z,16.85
2023-01-21T16:54:37.339Z,17.67
2023-01-21T16:57:03.749Z,18.03
2023-01-21T16:59:30.169Z,18.04
2023-01-21T17:01:56.635Z,17.60
2023-01-21T17:04:23.063Z,17.83
2023-01-21T17:06:49.472Z,17.57
2023-01-21T17:09:15.858Z,17.80
2023-01-21T17:11:42.221Z,17.38
2023-01-21T17:14:08.620Z,17.16
2023-01-21T17:16:35.004Z,16.26
2023-01-21T17:19:01.414Z,15.97
2023-01-21T17:21:27.793Z,16.07
2023-01-21T17:23:54.203Z,16.90
2023-01-21T17:26:20.639Z,17.02
2023-01-21T17:28:47.042Z,17.02
2023-01-21T17:31:13.515Z,16.88
2023-01-21T17:33:39.996Z,17.16
2023-01-21T17:36:06.404Z,17.12
2023-01-21T17:38:32.832Z,16.69
2023-01-21T17:40:59.212Z,16.84
2023-01-21T17:43:25.608Z,16.64
2023-01-21T17:45:51.997Z,16.51
2023-01-21T17:48:18.416Z,16.17
2023-01-21T17:50:44.812Z,15.43
2023-01-21T17:53:11.179Z,15.89
2023-01-21T17:55:37.554Z,16.04
2023-01-21T17:58:03.971Z,16.58
2023-01-21T18:00:30.354Z,16.38
2023-01-21T18:02:56.807Z,17.59
2023-01-21T18:05:23.228Z,18.11
2023-01-21T18:07:49.640Z,18.23
2023-01-21T18:10:16.140Z,17.70
2023-01-21T18:12:42.558Z,18.58
2023-01-21T18:15:08.962Z,17.58
2023-01-21T18:17:35.370Z,17.90
2023-01-21T18:20:01.818Z,17.82
2023-01-21T18:22:28.334Z,18.37
2023-01-21T18:24:54.701Z,17.82
2023-01-21T18:27:21.068Z,17.64
2023-01-21T18:29:47.445Z,17.68
2023-01-21T18:32:13.835Z,18.81
2023-01-21T18:34:40.351Z,17.86
2023-01-21T18:37:06.724Z,18.23
2023-01-21T18:39:33.173Z,18.29
2023-01-21T18:41:59.545Z,18.45
2023-01-21T18:44:25.953Z,17.90
2023-01-21T18:46:52.474Z,18.10
2023-01-21T18:49:18.975Z,18.22
2023-01-21T18:51:45.357Z,18.60
2023-01-21T18:54:11.755Z,18.19
2023-01-21T18:56:41.131Z,17.73
2023-01-21T18:59:07.546Z,19.15
2023-01-21T19:01:34.048Z,19.09
2023-01-21T19:04:00.544Z,19.62
2023-01-21T19:06:26.934Z,20.15
2023-01-21T19:08:53.369Z,19.90
2023-01-21T19:11:19.774Z,19.68
2023-01-21T19:13:46.268Z,19.99
2023-01-21T19:16:12.707Z,21.26
2023-01-21T19:18:39.107Z,20.60
2023-01-21T19:21:05.568Z,20.89
2023-01-21T19:23:31.963Z,21.16
2023-01-21T19:25:58.573Z,20.96
2023-01-21T19:28:25.013Z,20.41
2023-01-21T19:30:51.504Z,20.74
2023-01-21T19:33:17.901Z,20.88
2023-01-21T19:35:44.361Z,21.29
2023-01-21T19:38:10.765Z,20.42
2023-01-21T19:40:38.465Z,19.75
2023-01-21T19:43:04.872Z,20.10
2023-01-21T19:45:31.257Z,20.30
2023-01-21T19:47:57.655Z,20.82
2023-01-21T19:50:26.633Z,20.59
2023-01-21T19:52:53.164Z,20.19
2023-01-21T19:55:19.676Z,20.67
2023-01-21T19:57:46.187Z,19.95
2023-01-21T20:00:12.625Z,19.73
2023-01-21T20:02:39.004Z,19.35
2023-01-21T20:05:05.506Z,19.82
2023-01-21T20:07:33.818Z,19.18
2023-01-21T20:10:00.467Z,19.29
2023-01-21T20:12:27.045Z,19.25
2023-01-21T20:14:53.422Z,19.87
2023-01-21T20:17:19.849Z,20.53
2023-01-21T20:19:46.257Z,20.58
2023-01-21T20:22:12.663Z,20.24
2023-01-21T20:24:39.101Z,20.36
2023-01-21T20:27:06.728Z,20.30
2023-01-21T20:29:36.047Z,20.20
2023-01-21T20:32:04.163Z,19.91
2023-01-21T20:34:30.608Z,20.52
2023-01-21T20:36:56.971Z,20.01
2023-01-21T20:39:23.344Z,20.20
2023-01-21T20:41:49.728Z,19.67
2023-01-21T20:44:16.159Z,20.95
2023-01-21T20:46:42.556Z,19.48
2023-01-21T20:49:09.068Z,20.32
2023-01-21T20:51:35.433Z,19.82
2023-01-21T20:54:01.872Z,20.46
2023-01-21T20:56:29.536Z,20.62
2023-01-21T20:58:56.005Z,19.47
2023-01-21T21:01:22.387Z,19.96
2023-01-21T21:03:48.758Z,19.64
2023-01-21T21:06:15.291Z,20.82
2023-01-21T21:08:41.694Z,20.11
2023-01-21T21:11:08.098Z,20.11
2023-01-21T21:13:34.534Z,19.88
2023-01-21T21:16:01.033Z,20.15
2023-01-21T21:18:27.471Z,19.88
2023-01-21T21:20:53.917Z,19.60
2023-01-21T21:23:20.307Z,19.60
2023-01-21T21:25:46.682Z,20.32
2023-01-21T21:28:13.118Z,19.40
2023-01-21T21:30:39.544Z,18.90
2023-01-21T21:33:05.931Z,18.90
2023-01-21T21:35:32.339Z,18.88
2023-01-21T21:37:58.742Z,19.79
2023-01-21T21:40:28.161Z,19.08
2023-01-21T21:42:54.548Z,18.51
2023-01-21T21:45:20.939Z,18.78
2023-01-21T21:47:47.316Z,18.75
2023-01-21T21:50:13.684Z,18.77
2023-01-21T21:52:40.057Z,18.67
2023-01-21T21:55:06.417Z,18.56
2023-01-21T21:57:32.792Z,18.23
2023-01-21T21:59:59.288Z,18.81
2023-01-21T22:02:25.725Z,18.41
2023-01-21T22:04:52.133Z,17.46
2023-01-21T22:07:18.506Z,18.16
2023-01-21T22:09:44.881Z,17.48
2023-01-21T22:12:11.251Z,17.96
2023-01-21T22:14:37.693Z,17.98
2023-01-21T22:17:04.100Z,17.88
2023-01-21T22:19:30.498Z,17.59
2023-01-21T22:21:56.887Z,17.28
2023-01-21T22:24:23.296Z,17.03
2023-01-21T22:26:49.655Z,17.53
2023-01-21T22:29:16.052Z,17.13
2023-01-21T22:31:42.563Z,17.27
2023-01-21T22:34:08.982Z,17.38
2023-01-21T22:36:35.473Z,17.02
2023-01-21T22:39:01.855Z,16.83
2023-01-21T22:41:28.236Z,17.31
2023-01-21T22:43:54.641Z,17.47
2023-01-21T22:46:21.168Z,17.27
2023-01-21T22:48:47.640Z,16.89
2023-01-21T22:51:14.046Z,17.21
2023-01-21T22:53:40.480Z,17.34
2023-01-21T22:56:06.876Z,17.11
2023-01-21T22:58:33.280Z,16.79
2023-01-21T23:00:59.687Z,17.48
2023-01-21T23:03:26.115Z,16.47
2023-01-21T23:05:52.554Z,16.45
2023-01-21T23:08:18.914Z,16.57
2023-01-21T23:10:45.274Z,15.86
2023-01-21T23:13:11.666Z,16.59
2023-01-21T23:15:38.076Z,16.48
2023-01-21T23:18:04.559Z,16.15
2023-01-21T23:20:32.867Z,15.95
2023-01-21T23:22:59.224Z,15.94
2023-01-21T23:25:25.606Z,16.32
2023-01-21T23:27:51.990Z,16.61
2023-01-21T23:30:18.594Z,16.04
2023-01-21T23:32:45.190Z,16.29
2023-01-21T23:35:11.579Z,16.26
2023-01-21T23:37:37.957Z,16.19
2023-01-21T23:40:04.366Z,15.51
2023-01-21T23:42:30.732Z,16.30
2023-01-21T23:44:57.144Z,16.22
2023-01-21T23:47:23.519Z,16.12
2023-01-21T23:49:49.939Z,15.72
2023-01-21T23:52:16.335Z,15.84
2023-01-21T23:54:42.714Z,15.55
2023-01-21T23:57:09.105Z,15.50
2023-01-21T23:59:35.550Z,15.74
